Butes — A8UR6 — position and weather

sailwx.info

Track history (hours):
 
Tides and Currents Weather Stations Pressure Air Temp Water Temp Dewpoint Dewpoint Depression Visibility Wind Speed Wind Dir Waves Ship Positions

Butes

Last reported at 2015-Jul-06 23:08 UTC. Time now 2015-Jul-07 00:20 UTC.
Position N 40°05' E 000°30'.

Length 90 m; draft 3.3 m.

Type: Cargo ship. MMSI: 636091937.

Date/timePositionNaut miles runAvg speedWind from/ knotsBaromVisibWave heightAir tempDewpointWater temp
2015-Jul-06 23:08N 40°05' E 000°30'4 6.4
2015-Jul-06 22:31N 40°08' E 000°34'6 6.5
2015-Jul-06 21:33N 40°13' E 000°39'7 6.2
2015-Jul-06 20:26N 40°18' E 000°45'6 6.5
2015-Jul-06 19:33N 40°23' E 000°48'20 6.8
2015-Jul-06 16:32N 40°42' E 000°60'14 7.2
2015-Jul-06 14:32N 40°55' E 001°07'7 7.3
2015-Jul-06 13:33N 41°01' E 001°11'3 0.2
2015-Jul-05 18:33N 41°05' E 001°13'1 0.9
2015-Jul-05 17:12N 41°05' E 001°14'0 0.0
2015-Jul-05 16:30N 41°05' E 001°14'0 0.0
2015-Jul-05 13:30N 41°05' E 001°14'0 0.0
2015-Jul-05 11:30N 41°05' E 001°14'0 0.0
2015-Jul-05 04:18N 41°05' E 001°14'0 0.0
2015-Jul-05 03:30N 41°05' E 001°14'0 0.0
2015-Jul-04 18:30N 41°05' E 001°14'0 0.0
2015-Jul-04 09:32N 41°05' E 001°14'7 6.2
2015-Jul-04 08:24N 40°59' E 001°11'12 9.8
2015-Jul-04 07:12N 40°48' E 001°03'6 9.0
2015-Jul-04 06:33N 40°43' E 001°00'17 8.6
2015-Jul-04 04:33N 40°27' E 000°51'9 8.7
2015-Jul-04 03:34N 40°19' E 000°46'9 8.5
2015-Jul-04 02:33N 40°12' E 000°41'9 8.7
2015-Jul-04 01:34N 40°04' E 000°36'9 8.8
2015-Jul-04 00:33N 39°57' E 000°30'37 8.9
2015-Jul-03 20:24N 39°32' W 000°07'9 8.5
2015-Jul-03 19:17N 39°26' W 000°16'3 3.2
2015-Jul-03 18:30N 39°27' W 000°19'0 0.0
2015-Jul-03 17:24N 39°27' W 000°19'0 0.0
2015-Jul-03 16:31N 39°27' W 000°19'0 0.0
2015-Jul-03 15:30N 39°27' W 000°19'0 0.0
2015-Jul-03 14:33N 39°27' W 000°19'0 0.0
2015-Jul-03 13:34N 39°27' W 000°19'0 0.0
2015-Jul-03 12:30N 39°27' W 000°19'0 0.0
2015-Jul-03 11:24N 39°27' W 000°19'0 0.0
2015-Jul-03 10:30N 39°27' W 000°19'0 0.0
2015-Jul-03 09:30N 39°27' W 000°19'0 0.0
2015-Jul-03 08:34N 39°27' W 000°19'0 0.0
2015-Jul-03 07:33N 39°27' W 000°19'0 0.0
2015-Jul-03 06:31N 39°27' W 000°19'0 0.0
2015-Jul-03 05:31N 39°27' W 000°19'0 0.0
2015-Jul-03 04:30N 39°27' W 000°19'0 0.0
2015-Jul-03 03:30N 39°27' W 000°19'0 0.0
2015-Jul-03 02:33N 39°27' W 000°19'0 0.0
2015-Jul-03 01:33N 39°27' W 000°19'0 0.0
2015-Jul-03 00:30N 39°27' W 000°19'0 0.0
2015-Jul-02 23:30N 39°27' W 000°19'0 0.0
2015-Jul-02 22:30N 39°27' W 000°19'0 0.0
2015-Jul-02 21:25N 39°27' W 000°19'0 0.0
2015-Jul-02 20:31N 39°27' W 000°19'0 0.0
2015-Jul-02 19:25N 39°27' W 000°19'0 0.0
2015-Jul-02 18:31N 39°27' W 000°19'81 6.8
2015-Jul-02 06:33N 38°06' W 000°03'26 8.0
2015-Jul-02 03:19N 37°45' W 000°22'7 7.9
2015-Jul-02 02:23N 37°39' W 000°27'7 7.9
2015-Jul-02 01:30N 37°33' W 000°32'8 7.7
2015-Jul-02 00:26N 37°27' W 000°39'7 7.6
2015-Jul-01 23:33N 37°23' W 000°46'8 8.1
2015-Jul-01 22:33N 37°17' W 000°53'9 8.1
2015-Jul-01 21:25N 37°11' W 001°02'7 8.0
2015-Jul-01 20:32N 37°07' W 001°09'8 8.4
2015-Jul-01 19:33N 37°01' W 001°16'78 8.3
2015-Jul-01 10:09N 36°18' W 002°38'5 8.6
2015-Jul-01 09:33N 36°18' W 002°44'122 9.8
2015-Jun-30 21:11N 35°59' W 005°13'711.5
2015-Jun-30 20:33N 35°58' W 005°21'164 9.1
2015-Jun-30 02:32N 36°26' W 008°41'8 8.6
2015-Jun-30 01:33N 36°28' W 008°51'9 8.7
2015-Jun-30 00:30N 36°31' W 009°02'17 8.6
2015-Jun-29 22:33N 36°37' W 009°22'9 8.9
2015-Jun-29 21:32N 36°44' W 009°29'8 8.5
2015-Jun-29 20:33N 36°51' W 009°34'9 8.9
2015-Jun-29 19:33N 36°60' W 009°37'9 9.1
2015-Jun-29 18:33N 37°09' W 009°39'9 9.3
2015-Jun-29 17:33N 37°18' W 009°42'9 9.2
2015-Jun-29 16:33N 37°27' W 009°44'9 9.3
2015-Jun-29 15:33N 37°36' W 009°47'9 9.3
2015-Jun-29 14:33N 37°45' W 009°50'10 9.6
2015-Jun-29 13:33N 37°54' W 009°53'10 9.7
2015-Jun-29 12:33N 38°04' W 009°55'10 9.6
2015-Jun-29 11:33N 38°13' W 009°58'9 9.3
2015-Jun-29 10:34N 38°22' W 010°01'9 9.3
2015-Jun-29 09:33N 38°31' W 010°04'9 9.1
2015-Jun-29 08:33N 38°40' W 010°06'9 9.2
2015-Jun-29 07:32N 38°49' W 010°07'9 9.2
2015-Jun-29 06:33N 38°58' W 010°07'1010.1
2015-Jun-29 05:33N 39°08' W 010°07'9 9.3
2015-Jun-29 04:33N 39°18' W 010°07'9 8.9
2015-Jun-29 03:33N 39°27' W 010°07'9 8.9
2015-Jun-29 02:33N 39°35' W 010°07'9 8.9
2015-Jun-29 01:33N 39°44' W 010°07'9 8.7
2015-Jun-29 00:33N 39°53' W 010°07'10 9.0
2015-Jun-28 23:29N 40°03' W 010°08'8 9.0
2015-Jun-28 22:33N 40°11' W 010°07'9 9.0
2015-Jun-28 21:32N 40°20' W 010°07'9 9.2
2015-Jun-28 20:32N 40°29' W 010°07'29 9.2
2015-Jun-28 17:26N 40°58' W 010°07'58 9.2
2015-Jun-28 11:08N 41°56' W 010°06'  
Track history (hours):
 
Tides and Currents Weather Stations Pressure Air Temp Water Temp Dewpoint Dewpoint Depression Visibility Wind Speed Wind Dir Waves Ship Positions

Butes

Last reported at 2015-Jul-06 23:08 UTC. Time now 2015-Jul-07 00:20 UTC.
Position N 40°05' E 000°30'.

Length 90 m; draft 3.3 m.

Type: Cargo ship. MMSI: 636091937.

Date/timePositionNaut miles runAvg speedWind from/ knotsBaromVisibWave heightAir tempDewpointWater temp
2015-Jul-06 23:08N 40°05' E 000°30'4 6.4
2015-Jul-06 22:31N 40°08' E 000°34'6 6.5
2015-Jul-06 21:33N 40°13' E 000°39'7 6.2
2015-Jul-06 20:26N 40°18' E 000°45'6 6.5
2015-Jul-06 19:33N 40°23' E 000°48'20 6.8
2015-Jul-06 16:32N 40°42' E 000°60'14 7.2
2015-Jul-06 14:32N 40°55' E 001°07'7 7.3
2015-Jul-06 13:33N 41°01' E 001°11'3 0.2
2015-Jul-05 18:33N 41°05' E 001°13'1 0.9
2015-Jul-05 17:12N 41°05' E 001°14'0 0.0
2015-Jul-05 16:30N 41°05' E 001°14'0 0.0
2015-Jul-05 13:30N 41°05' E 001°14'0 0.0
2015-Jul-05 11:30N 41°05' E 001°14'0 0.0
2015-Jul-05 04:18N 41°05' E 001°14'0 0.0
2015-Jul-05 03:30N 41°05' E 001°14'0 0.0
2015-Jul-04 18:30N 41°05' E 001°14'0 0.0
2015-Jul-04 09:32N 41°05' E 001°14'7 6.2
2015-Jul-04 08:24N 40°59' E 001°11'12 9.8
2015-Jul-04 07:12N 40°48' E 001°03'6 9.0
2015-Jul-04 06:33N 40°43' E 001°00'17 8.6
2015-Jul-04 04:33N 40°27' E 000°51'9 8.7
2015-Jul-04 03:34N 40°19' E 000°46'9 8.5
2015-Jul-04 02:33N 40°12' E 000°41'9 8.7
2015-Jul-04 01:34N 40°04' E 000°36'9 8.8
2015-Jul-04 00:33N 39°57' E 000°30'37 8.9
2015-Jul-03 20:24N 39°32' W 000°07'9 8.5
2015-Jul-03 19:17N 39°26' W 000°16'3 3.2
2015-Jul-03 18:30N 39°27' W 000°19'0 0.0
2015-Jul-03 17:24N 39°27' W 000°19'0 0.0
2015-Jul-03 16:31N 39°27' W 000°19'0 0.0
2015-Jul-03 15:30N 39°27' W 000°19'0 0.0
2015-Jul-03 14:33N 39°27' W 000°19'0 0.0
2015-Jul-03 13:34N 39°27' W 000°19'0 0.0
2015-Jul-03 12:30N 39°27' W 000°19'0 0.0
2015-Jul-03 11:24N 39°27' W 000°19'0 0.0
2015-Jul-03 10:30N 39°27' W 000°19'0 0.0
2015-Jul-03 09:30N 39°27' W 000°19'0 0.0
2015-Jul-03 08:34N 39°27' W 000°19'0 0.0
2015-Jul-03 07:33N 39°27' W 000°19'0 0.0
2015-Jul-03 06:31N 39°27' W 000°19'0 0.0
2015-Jul-03 05:31N 39°27' W 000°19'0 0.0
2015-Jul-03 04:30N 39°27' W 000°19'0 0.0
2015-Jul-03 03:30N 39°27' W 000°19'0 0.0
2015-Jul-03 02:33N 39°27' W 000°19'0 0.0
2015-Jul-03 01:33N 39°27' W 000°19'0 0.0
2015-Jul-03 00:30N 39°27' W 000°19'0 0.0
2015-Jul-02 23:30N 39°27' W 000°19'0 0.0
2015-Jul-02 22:30N 39°27' W 000°19'0 0.0
2015-Jul-02 21:25N 39°27' W 000°19'0 0.0
2015-Jul-02 20:31N 39°27' W 000°19'0 0.0
2015-Jul-02 19:25N 39°27' W 000°19'0 0.0
2015-Jul-02 18:31N 39°27' W 000°19'81 6.8
2015-Jul-02 06:33N 38°06' W 000°03'26 8.0
2015-Jul-02 03:19N 37°45' W 000°22'7 7.9
2015-Jul-02 02:23N 37°39' W 000°27'7 7.9
2015-Jul-02 01:30N 37°33' W 000°32'8 7.7
2015-Jul-02 00:26N 37°27' W 000°39'7 7.6
2015-Jul-01 23:33N 37°23' W 000°46'8 8.1
2015-Jul-01 22:33N 37°17' W 000°53'9 8.1
2015-Jul-01 21:25N 37°11' W 001°02'7 8.0
2015-Jul-01 20:32N 37°07' W 001°09'8 8.4
2015-Jul-01 19:33N 37°01' W 001°16'78 8.3
2015-Jul-01 10:09N 36°18' W 002°38'5 8.6
2015-Jul-01 09:33N 36°18' W 002°44'122 9.8
2015-Jun-30 21:11N 35°59' W 005°13'711.5
2015-Jun-30 20:33N 35°58' W 005°21'164 9.1
2015-Jun-30 02:32N 36°26' W 008°41'8 8.6
2015-Jun-30 01:33N 36°28' W 008°51'9 8.7
2015-Jun-30 00:30N 36°31' W 009°02'17 8.6
2015-Jun-29 22:33N 36°37' W 009°22'9 8.9
2015-Jun-29 21:32N 36°44' W 009°29'8 8.5
2015-Jun-29 20:33N 36°51' W 009°34'9 8.9
2015-Jun-29 19:33N 36°60' W 009°37'9 9.1
2015-Jun-29 18:33N 37°09' W 009°39'9 9.3
2015-Jun-29 17:33N 37°18' W 009°42'9 9.2
2015-Jun-29 16:33N 37°27' W 009°44'9 9.3
2015-Jun-29 15:33N 37°36' W 009°47'9 9.3
2015-Jun-29 14:33N 37°45' W 009°50'10 9.6
2015-Jun-29 13:33N 37°54' W 009°53'10 9.7
2015-Jun-29 12:33N 38°04' W 009°55'10 9.6
2015-Jun-29 11:33N 38°13' W 009°58'9 9.3
2015-Jun-29 10:34N 38°22' W 010°01'9 9.3
2015-Jun-29 09:33N 38°31' W 010°04'9 9.1
2015-Jun-29 08:33N 38°40' W 010°06'9 9.2
2015-Jun-29 07:32N 38°49' W 010°07'9 9.2
2015-Jun-29 06:33N 38°58' W 010°07'1010.1
2015-Jun-29 05:33N 39°08' W 010°07'9 9.3
2015-Jun-29 04:33N 39°18' W 010°07'9 8.9
2015-Jun-29 03:33N 39°27' W 010°07'9 8.9
2015-Jun-29 02:33N 39°35' W 010°07'9 8.9
2015-Jun-29 01:33N 39°44' W 010°07'9 8.7
2015-Jun-29 00:33N 39°53' W 010°07'10 9.0
2015-Jun-28 23:29N 40°03' W 010°08'8 9.0
2015-Jun-28 22:33N 40°11' W 010°07'9 9.0
2015-Jun-28 21:32N 40°20' W 010°07'9 9.2
2015-Jun-28 20:32N 40°29' W 010°07'29 9.2
2015-Jun-28 17:26N 40°58' W 010°07'58 9.2
2015-Jun-28 11:08N 41°56' W 010°06'  

Dump ship's entire track history